sensor_id;sensor_type;location;lat;lon;timestamp;P1;durP1;ratioP1;P2;durP2;ratioP2
23632;SDS011;11993;48.748;9.166;2023-06-24T00:00:07;5.22;;;3.40;;
23632;SDS011;11993;48.748;9.166;2023-06-24T00:02:36;10.75;;;4.22;;
23632;SDS011;11993;48.748;9.166;2023-06-24T00:05:03;5.13;;;3.70;;
23632;SDS011;11993;48.748;9.166;2023-06-24T00:07:29;4.32;;;3.50;;
23632;SDS011;11993;48.748;9.166;2023-06-24T00:09:55;5.65;;;3.55;;
23632;SDS011;11993;48.748;9.166;2023-06-24T00:12:21;4.63;;;3.40;;
23632;SDS011;11993;48.748;9.166;2023-06-24T00:14:46;6.80;;;3.50;;
23632;SDS011;11993;48.748;9.166;2023-06-24T00:17:12;3.90;;;3.50;;
23632;SDS011;11993;48.748;9.166;2023-06-24T00:19:38;8.02;;;3.58;;
23632;SDS011;11993;48.748;9.166;2023-06-24T00:22:07;4.80;;;4.07;;
23632;SDS011;11993;48.748;9.166;2023-06-24T00:24:32;4.38;;;3.33;;
23632;SDS011;11993;48.748;9.166;2023-06-24T00:26:58;5.75;;;3.58;;
23632;SDS011;11993;48.748;9.166;2023-06-24T00:29:23;5.00;;;3.78;;
23632;SDS011;11993;48.748;9.166;2023-06-24T00:31:49;5.05;;;3.53;;
23632;SDS011;11993;48.748;9.166;2023-06-24T00:34:14;6.80;;;3.88;;
23632;SDS011;11993;48.748;9.166;2023-06-24T00:36:40;4.47;;;3.50;;
23632;SDS011;11993;48.748;9.166;2023-06-24T00:39:08;5.75;;;3.88;;
23632;SDS011;11993;48.748;9.166;2023-06-24T00:41:34;5.13;;;3.63;;
23632;SDS011;11993;48.748;9.166;2023-06-24T00:44:01;4.85;;;3.83;;
23632;SDS011;11993;48.748;9.166;2023-06-24T00:46:27;5.25;;;3.85;;
23632;SDS011;11993;48.748;9.166;2023-06-24T00:48:56;6.57;;;4.47;;
23632;SDS011;11993;48.748;9.166;2023-06-24T00:51:23;7.72;;;4.05;;
23632;SDS011;11993;48.748;9.166;2023-06-24T00:53:58;6.53;;;4.13;;
23632;SDS011;11993;48.748;9.166;2023-06-24T00:56:33;4.40;;;3.88;;
23632;SDS011;11993;48.748;9.166;2023-06-24T00:59:03;5.25;;;3.75;;
23632;SDS011;11993;48.748;9.166;2023-06-24T01:01:30;5.57;;;4.63;;
23632;SDS011;11993;48.748;9.166;2023-06-24T01:03:58;7.55;;;4.03;;
23632;SDS011;11993;48.748;9.166;2023-06-24T01:06:25;5.43;;;3.65;;
23632;SDS011;11993;48.748;9.166;2023-06-24T01:08:57;6.82;;;4.22;;
23632;SDS011;11993;48.748;9.166;2023-06-24T01:11:25;5.57;;;4.43;;
23632;SDS011;11993;48.748;9.166;2023-06-24T01:13:51;9.60;;;4.57;;
23632;SDS011;11993;48.748;9.166;2023-06-24T01:16:30;9.23;;;5.32;;
23632;SDS011;11993;48.748;9.166;2023-06-24T01:19:20;5.65;;;4.18;;
23632;SDS011;11993;48.748;9.166;2023-06-24T01:30:03;6.80;;;4.95;;
23632;SDS011;11993;48.748;9.166;2023-06-24T01:33:07;6.40;;;5.22;;
23632;SDS011;11993;48.748;9.166;2023-06-24T01:35:38;8.02;;;5.10;;
23632;SDS011;11993;48.748;9.166;2023-06-24T01:38:07;5.85;;;4.88;;
23632;SDS011;11993;48.748;9.166;2023-06-24T01:40:40;5.90;;;4.80;;
23632;SDS011;11993;48.748;9.166;2023-06-24T01:43:09;5.55;;;4.35;;
23632;SDS011;11993;48.748;9.166;2023-06-24T01:45:37;9.18;;;5.63;;
23632;SDS011;11993;48.748;9.166;2023-06-24T01:48:25;5.95;;;5.30;;
23632;SDS011;11993;48.748;9.166;2023-06-24T01:51:00;7.70;;;5.35;;
23632;SDS011;11993;48.748;9.166;2023-06-24T01:53:32;7.82;;;5.63;;
23632;SDS011;11993;48.748;9.166;2023-06-24T01:56:00;8.25;;;6.40;;
23632;SDS011;11993;48.748;9.166;2023-06-24T01:58:28;10.30;;;5.82;;
23632;SDS011;11993;48.748;9.166;2023-06-24T02:00:55;7.38;;;6.28;;
23632;SDS011;11993;48.748;9.166;2023-06-24T02:03:22;9.50;;;5.35;;
23632;SDS011;11993;48.748;9.166;2023-06-24T02:05:49;8.45;;;5.75;;
23632;SDS011;11993;48.748;9.166;2023-06-24T02:08:16;11.25;;;6.03;;
23632;SDS011;11993;48.748;9.166;2023-06-24T02:10:44;7.57;;;5.22;;
23632;SDS011;11993;48.748;9.166;2023-06-24T02:13:11;5.85;;;5.15;;
23632;SDS011;11993;48.748;9.166;2023-06-24T02:15:37;7.65;;;5.70;;
23632;SDS011;11993;48.748;9.166;2023-06-24T02:18:04;7.35;;;5.68;;
23632;SDS011;11993;48.748;9.166;2023-06-24T02:20:32;10.60;;;5.90;;
23632;SDS011;11993;48.748;9.166;2023-06-24T02:22:58;12.38;;;5.95;;
23632;SDS011;11993;48.748;9.166;2023-06-24T02:25:25;6.38;;;5.07;;
23632;SDS011;11993;48.748;9.166;2023-06-24T02:27:52;7.90;;;5.35;;
23632;SDS011;11993;48.748;9.166;2023-06-24T02:30:19;6.75;;;5.55;;
23632;SDS011;11993;48.748;9.166;2023-06-24T02:32:46;7.32;;;6.20;;
23632;SDS011;11993;48.748;9.166;2023-06-24T02:35:12;10.15;;;5.63;;
23632;SDS011;11993;48.748;9.166;2023-06-24T02:37:37;12.57;;;5.47;;
23632;SDS011;11993;48.748;9.166;2023-06-24T02:40:03;10.15;;;6.63;;
23632;SDS011;11993;48.748;9.166;2023-06-24T02:42:30;7.57;;;5.68;;
23632;SDS011;11993;48.748;9.166;2023-06-24T02:44:56;9.60;;;5.90;;
23632;SDS011;11993;48.748;9.166;2023-06-24T02:47:22;10.95;;;5.95;;
23632;SDS011;11993;48.748;9.166;2023-06-24T02:49:49;8.05;;;6.53;;
23632;SDS011;11993;48.748;9.166;2023-06-24T02:52:16;8.73;;;5.97;;
23632;SDS011;11993;48.748;9.166;2023-06-24T02:54:42;7.50;;;6.10;;
23632;SDS011;11993;48.748;9.166;2023-06-24T02:57:09;9.32;;;6.57;;
23632;SDS011;11993;48.748;9.166;2023-06-24T02:59:35;9.98;;;6.10;;
23632;SDS011;11993;48.748;9.166;2023-06-24T03:02:02;9.63;;;6.25;;
23632;SDS011;11993;48.748;9.166;2023-06-24T03:04:28;7.97;;;6.07;;
23632;SDS011;11993;48.748;9.166;2023-06-24T03:06:55;7.13;;;6.00;;
23632;SDS011;11993;48.748;9.166;2023-06-24T03:09:21;9.15;;;6.22;;
23632;SDS011;11993;48.748;9.166;2023-06-24T03:11:48;7.65;;;6.03;;
23632;SDS011;11993;48.748;9.166;2023-06-24T03:14:13;10.25;;;5.85;;
23632;SDS011;11993;48.748;9.166;2023-06-24T03:16:39;8.23;;;6.18;;
23632;SDS011;11993;48.748;9.166;2023-06-24T03:19:05;9.43;;;6.07;;
23632;SDS011;11993;48.748;9.166;2023-06-24T03:21:30;5.80;;;5.20;;
23632;SDS011;11993;48.748;9.166;2023-06-24T03:23:57;5.97;;;5.22;;
23632;SDS011;11993;48.748;9.166;2023-06-24T03:26:24;10.50;;;6.05;;
23632;SDS011;11993;48.748;9.166;2023-06-24T03:29:10;6.57;;;5.40;;
23632;SDS011;11993;48.748;9.166;2023-06-24T03:31:37;7.35;;;5.80;;
23632;SDS011;11993;48.748;9.166;2023-06-24T03:34:02;5.45;;;4.95;;
23632;SDS011;11993;48.748;9.166;2023-06-24T03:36:28;6.85;;;5.50;;
23632;SDS011;11993;48.748;9.166;2023-06-24T03:38:53;8.98;;;5.30;;
23632;SDS011;11993;48.748;9.166;2023-06-24T03:41:19;9.00;;;5.15;;
23632;SDS011;11993;48.748;9.166;2023-06-24T03:43:45;9.13;;;5.30;;
23632;SDS011;11993;48.748;9.166;2023-06-24T03:46:11;7.95;;;5.35;;
23632;SDS011;11993;48.748;9.166;2023-06-24T03:48:37;7.97;;;5.20;;
23632;SDS011;11993;48.748;9.166;2023-06-24T03:51:02;6.20;;;4.95;;
23632;SDS011;11993;48.748;9.166;2023-06-24T03:53:28;6.65;;;5.43;;
23632;SDS011;11993;48.748;9.166;2023-06-24T03:55:53;6.03;;;4.97;;
23632;SDS011;11993;48.748;9.166;2023-06-24T03:58:19;5.57;;;4.80;;
23632;SDS011;11993;48.748;9.166;2023-06-24T04:00:46;6.63;;;5.38;;
23632;SDS011;11993;48.748;9.166;2023-06-24T04:03:14;7.13;;;5.10;;
23632;SDS011;11993;48.748;9.166;2023-06-24T04:05:40;6.38;;;4.97;;
23632;SDS011;11993;48.748;9.166;2023-06-24T04:08:06;7.03;;;5.38;;
23632;SDS011;11993;48.748;9.166;2023-06-24T04:10:32;9.57;;;5.30;;
23632;SDS011;11993;48.748;9.166;2023-06-24T04:12:58;6.68;;;5.18;;
23632;SDS011;11993;48.748;9.166;2023-06-24T04:15:23;6.25;;;4.80;;
23632;SDS011;11993;48.748;9.166;2023-06-24T04:17:49;9.63;;;5.50;;
23632;SDS011;11993;48.748;9.166;2023-06-24T04:20:14;8.35;;;5.10;;
23632;SDS011;11993;48.748;9.166;2023-06-24T04:22:41;8.07;;;5.70;;
23632;SDS011;11993;48.748;9.166;2023-06-24T04:25:07;10.32;;;5.22;;
23632;SDS011;11993;48.748;9.166;2023-06-24T04:27:33;8.57;;;5.25;;
23632;SDS011;11993;48.748;9.166;2023-06-24T04:30:00;6.25;;;5.18;;
23632;SDS011;11993;48.748;9.166;2023-06-24T04:32:26;7.88;;;5.05;;
23632;SDS011;11993;48.748;9.166;2023-06-24T04:34:51;7.50;;;5.43;;
23632;SDS011;11993;48.748;9.166;2023-06-24T04:37:17;7.68;;;5.30;;
23632;SDS011;11993;48.748;9.166;2023-06-24T04:39:43;6.75;;;5.22;;
23632;SDS011;11993;48.748;9.166;2023-06-24T04:42:09;8.50;;;5.40;;
23632;SDS011;11993;48.748;9.166;2023-06-24T04:44:35;8.55;;;5.53;;
23632;SDS011;11993;48.748;9.166;2023-06-24T04:47:01;10.52;;;5.35;;
23632;SDS011;11993;48.748;9.166;2023-06-24T04:49:27;7.05;;;5.38;;
23632;SDS011;11993;48.748;9.166;2023-06-24T04:51:52;6.43;;;4.60;;
23632;SDS011;11993;48.748;9.166;2023-06-24T04:54:18;6.82;;;5.65;;
23632;SDS011;11993;48.748;9.166;2023-06-24T04:56:43;7.03;;;5.07;;
23632;SDS011;11993;48.748;9.166;2023-06-24T04:59:10;9.02;;;5.53;;
23632;SDS011;11993;48.748;9.166;2023-06-24T05:01:36;6.55;;;5.38;;
23632;SDS011;11993;48.748;9.166;2023-06-24T05:04:01;9.05;;;5.47;;
23632;SDS011;11993;48.748;9.166;2023-06-24T05:06:27;6.45;;;4.75;;
23632;SDS011;11993;48.748;9.166;2023-06-24T05:08:52;9.63;;;4.78;;
23632;SDS011;11993;48.748;9.166;2023-06-24T05:11:18;7.20;;;5.10;;
23632;SDS011;11993;48.748;9.166;2023-06-24T05:13:44;6.70;;;5.70;;
23632;SDS011;11993;48.748;9.166;2023-06-24T05:16:09;6.88;;;5.57;;
23632;SDS011;11993;48.748;9.166;2023-06-24T05:18:35;11.85;;;5.60;;
23632;SDS011;11993;48.748;9.166;2023-06-24T05:21:01;6.72;;;5.18;;
23632;SDS011;11993;48.748;9.166;2023-06-24T05:23:26;7.93;;;5.32;;
23632;SDS011;11993;48.748;9.166;2023-06-24T05:25:52;6.57;;;4.85;;
23632;SDS011;11993;48.748;9.166;2023-06-24T05:28:17;6.13;;;5.03;;
23632;SDS011;11993;48.748;9.166;2023-06-24T05:30:44;6.35;;;4.95;;
23632;SDS011;11993;48.748;9.166;2023-06-24T05:33:10;8.63;;;5.10;;
23632;SDS011;11993;48.748;9.166;2023-06-24T05:35:36;7.03;;;5.13;;
23632;SDS011;11993;48.748;9.166;2023-06-24T05:38:04;9.07;;;5.35;;
23632;SDS011;11993;48.748;9.166;2023-06-24T05:40:30;6.10;;;4.90;;
23632;SDS011;11993;48.748;9.166;2023-06-24T05:42:56;6.32;;;5.10;;
23632;SDS011;11993;48.748;9.166;2023-06-24T05:45:21;5.70;;;4.75;;
23632;SDS011;11993;48.748;9.166;2023-06-24T05:47:47;10.00;;;4.82;;
23632;SDS011;11993;48.748;9.166;2023-06-24T05:50:12;5.78;;;4.50;;
23632;SDS011;11993;48.748;9.166;2023-06-24T05:52:38;10.40;;;5.00;;
23632;SDS011;11993;48.748;9.166;2023-06-24T05:55:03;6.18;;;4.53;;
23632;SDS011;11993;48.748;9.166;2023-06-24T05:57:29;7.97;;;4.85;;
23632;SDS011;11993;48.748;9.166;2023-06-24T05:59:55;7.65;;;4.82;;
23632;SDS011;11993;48.748;9.166;2023-06-24T06:02:20;7.30;;;4.30;;
23632;SDS011;11993;48.748;9.166;2023-06-24T06:04:46;5.80;;;4.55;;
23632;SDS011;11993;48.748;9.166;2023-06-24T06:07:12;5.35;;;4.10;;
23632;SDS011;11993;48.748;9.166;2023-06-24T06:09:37;5.55;;;4.95;;
23632;SDS011;11993;48.748;9.166;2023-06-24T06:12:03;7.28;;;4.93;;
23632;SDS011;11993;48.748;9.166;2023-06-24T06:14:29;8.02;;;4.88;;
23632;SDS011;11993;48.748;9.166;2023-06-24T06:16:55;5.72;;;4.72;;
23632;SDS011;11993;48.748;9.166;2023-06-24T06:19:20;6.25;;;4.85;;
23632;SDS011;11993;48.748;9.166;2023-06-24T06:21:46;12.38;;;4.85;;
23632;SDS011;11993;48.748;9.166;2023-06-24T06:24:11;5.93;;;4.45;;
23632;SDS011;11993;48.748;9.166;2023-06-24T06:26:43;5.55;;;4.57;;
23632;SDS011;11993;48.748;9.166;2023-06-24T06:29:09;5.25;;;3.72;;
23632;SDS011;11993;48.748;9.166;2023-06-24T06:31:35;6.13;;;3.72;;
23632;SDS011;11993;48.748;9.166;2023-06-24T06:34:01;5.35;;;4.18;;
23632;SDS011;11993;48.748;9.166;2023-06-24T06:36:27;4.85;;;3.70;;
23632;SDS011;11993;48.748;9.166;2023-06-24T06:38:52;5.20;;;3.78;;
23632;SDS011;11993;48.748;9.166;2023-06-24T06:41:18;6.88;;;3.80;;
23632;SDS011;11993;48.748;9.166;2023-06-24T06:43:49;7.53;;;4.28;;
23632;SDS011;11993;48.748;9.166;2023-06-24T06:46:15;6.93;;;4.03;;
23632;SDS011;11993;48.748;9.166;2023-06-24T06:48:40;4.38;;;3.30;;
23632;SDS011;11993;48.748;9.166;2023-06-24T06:51:06;5.25;;;3.58;;
23632;SDS011;11993;48.748;9.166;2023-06-24T06:53:31;4.90;;;3.58;;
23632;SDS011;11993;48.748;9.166;2023-06-24T06:55:57;5.25;;;3.72;;
23632;SDS011;11993;48.748;9.166;2023-06-24T06:58:23;6.10;;;3.42;;
23632;SDS011;11993;48.748;9.166;2023-06-24T07:00:49;3.70;;;3.33;;
23632;SDS011;11993;48.748;9.166;2023-06-24T07:03:15;4.60;;;3.80;;
23632;SDS011;11993;48.748;9.166;2023-06-24T07:05:40;4.80;;;3.65;;
23632;SDS011;11993;48.748;9.166;2023-06-24T07:08:06;4.32;;;3.33;;
23632;SDS011;11993;48.748;9.166;2023-06-24T07:10:31;4.75;;;3.13;;
23632;SDS011;11993;48.748;9.166;2023-06-24T07:12:57;4.22;;;3.25;;
23632;SDS011;11993;48.748;9.166;2023-06-24T07:15:23;3.80;;;2.90;;
23632;SDS011;11993;48.748;9.166;2023-06-24T07:17:52;4.60;;;3.30;;
23632;SDS011;11993;48.748;9.166;2023-06-24T07:20:21;6.03;;;3.10;;
23632;SDS011;11993;48.748;9.166;2023-06-24T07:22:47;3.85;;;2.85;;
23632;SDS011;11993;48.748;9.166;2023-06-24T07:25:12;4.75;;;3.08;;
23632;SDS011;11993;48.748;9.166;2023-06-24T07:27:38;4.00;;;2.70;;
23632;SDS011;11993;48.748;9.166;2023-06-24T07:30:04;3.50;;;3.10;;
23632;SDS011;11993;48.748;9.166;2023-06-24T07:32:30;4.55;;;3.03;;
23632;SDS011;11993;48.748;9.166;2023-06-24T07:34:56;3.70;;;2.80;;
23632;SDS011;11993;48.748;9.166;2023-06-24T07:37:22;4.75;;;2.85;;
23632;SDS011;11993;48.748;9.166;2023-06-24T07:39:47;4.95;;;3.35;;
23632;SDS011;11993;48.748;9.166;2023-06-24T07:42:13;4.35;;;2.95;;
23632;SDS011;11993;48.748;9.166;2023-06-24T07:44:43;3.70;;;2.80;;
23632;SDS011;11993;48.748;9.166;2023-06-24T07:47:13;4.00;;;2.70;;
23632;SDS011;11993;48.748;9.166;2023-06-24T07:49:39;3.40;;;3.03;;
23632;SDS011;11993;48.748;9.166;2023-06-24T07:52:05;4.20;;;3.05;;
23632;SDS011;11993;48.748;9.166;2023-06-24T07:54:31;3.97;;;3.40;;
23632;SDS011;11993;48.748;9.166;2023-06-24T07:56:57;4.15;;;3.38;;
23632;SDS011;11993;48.748;9.166;2023-06-24T07:59:22;5.22;;;3.50;;
23632;SDS011;11993;48.748;9.166;2023-06-24T08:01:49;4.38;;;3.35;;
23632;SDS011;11993;48.748;9.166;2023-06-24T08:04:14;4.20;;;3.10;;
23632;SDS011;11993;48.748;9.166;2023-06-24T08:06:41;3.38;;;2.70;;
23632;SDS011;11993;48.748;9.166;2023-06-24T08:09:06;4.18;;;3.35;;
23632;SDS011;11993;48.748;9.166;2023-06-24T08:11:32;5.70;;;2.95;;
23632;SDS011;11993;48.748;9.166;2023-06-24T08:13:58;7.95;;;3.08;;
23632;SDS011;11993;48.748;9.166;2023-06-24T08:16:23;4.93;;;3.47;;
23632;SDS011;11993;48.748;9.166;2023-06-24T08:18:49;6.65;;;3.20;;
23632;SDS011;11993;48.748;9.166;2023-06-24T08:21:14;3.13;;;2.83;;
23632;SDS011;11993;48.748;9.166;2023-06-24T08:23:40;5.55;;;3.28;;
23632;SDS011;11993;48.748;9.166;2023-06-24T08:26:07;5.68;;;3.83;;
23632;SDS011;11993;48.748;9.166;2023-06-24T08:28:32;4.85;;;3.58;;
23632;SDS011;11993;48.748;9.166;2023-06-24T08:30:58;3.95;;;3.00;;
23632;SDS011;11993;48.748;9.166;2023-06-24T08:33:24;4.95;;;3.40;;
23632;SDS011;11993;48.748;9.166;2023-06-24T08:35:49;3.58;;;3.15;;
23632;SDS011;11993;48.748;9.166;2023-06-24T08:38:15;4.20;;;2.90;;
23632;SDS011;11993;48.748;9.166;2023-06-24T08:40:40;5.18;;;3.38;;
23632;SDS011;11993;48.748;9.166;2023-06-24T08:43:08;6.80;;;3.35;;
23632;SDS011;11993;48.748;9.166;2023-06-24T08:45:34;4.75;;;3.70;;
23632;SDS011;11993;48.748;9.166;2023-06-24T08:48:00;4.15;;;2.90;;
23632;SDS011;11993;48.748;9.166;2023-06-24T08:50:27;5.22;;;3.47;;
23632;SDS011;11993;48.748;9.166;2023-06-24T08:52:59;6.63;;;3.03;;
23632;SDS011;11993;48.748;9.166;2023-06-24T08:55:28;4.10;;;3.38;;
23632;SDS011;11993;48.748;9.166;2023-06-24T08:57:57;4.35;;;3.17;;
23632;SDS011;11993;48.748;9.166;2023-06-24T09:00:22;4.43;;;3.15;;
23632;SDS011;11993;48.748;9.166;2023-06-24T09:02:49;4.57;;;3.22;;
23632;SDS011;11993;48.748;9.166;2023-06-24T09:05:14;5.53;;;3.83;;
23632;SDS011;11993;48.748;9.166;2023-06-24T09:07:40;6.95;;;3.20;;
23632;SDS011;11993;48.748;9.166;2023-06-24T09:10:06;7.53;;;3.53;;
23632;SDS011;11993;48.748;9.166;2023-06-24T09:12:32;6.18;;;3.00;;
23632;SDS011;11993;48.748;9.166;2023-06-24T09:14:58;5.30;;;3.42;;
23632;SDS011;11993;48.748;9.166;2023-06-24T09:17:24;4.93;;;3.00;;
23632;SDS011;11993;48.748;9.166;2023-06-24T09:19:50;3.08;;;2.35;;
23632;SDS011;11993;48.748;9.166;2023-06-24T09:22:16;5.43;;;3.13;;
23632;SDS011;11993;48.748;9.166;2023-06-24T09:24:46;7.28;;;3.33;;
23632;SDS011;11993;48.748;9.166;2023-06-24T09:27:16;3.90;;;2.60;;
23632;SDS011;11993;48.748;9.166;2023-06-24T09:29:46;4.82;;;3.10;;
23632;SDS011;11993;48.748;9.166;2023-06-24T09:32:12;4.55;;;3.90;;
23632;SDS011;11993;48.748;9.166;2023-06-24T09:34:38;6.07;;;2.90;;
23632;SDS011;11993;48.748;9.166;2023-06-24T09:37:04;2.78;;;2.30;;
23632;SDS011;11993;48.748;9.166;2023-06-24T09:39:34;3.85;;;2.90;;
23632;SDS011;11993;48.748;9.166;2023-06-24T09:42:02;3.13;;;2.40;;
23632;SDS011;11993;48.748;9.166;2023-06-24T09:44:29;4.25;;;2.55;;
23632;SDS011;11993;48.748;9.166;2023-06-24T09:46:55;5.10;;;3.10;;
23632;SDS011;11993;48.748;9.166;2023-06-24T09:49:21;3.60;;;2.70;;
23632;SDS011;11993;48.748;9.166;2023-06-24T09:51:48;3.88;;;3.08;;
23632;SDS011;11993;48.748;9.166;2023-06-24T09:54:21;2.90;;;2.45;;
23632;SDS011;11993;48.748;9.166;2023-06-24T09:56:50;3.47;;;2.80;;
23632;SDS011;11993;48.748;9.166;2023-06-24T09:59:18;3.95;;;2.60;;
23632;SDS011;11993;48.748;9.166;2023-06-24T10:01:44;3.55;;;2.60;;
23632;SDS011;11993;48.748;9.166;2023-06-24T10:04:14;4.18;;;2.53;;
23632;SDS011;11993;48.748;9.166;2023-06-24T10:06:41;3.03;;;2.40;;
23632;SDS011;11993;48.748;9.166;2023-06-24T10:09:07;4.55;;;2.38;;
23632;SDS011;11993;48.748;9.166;2023-06-24T10:11:33;8.98;;;5.05;;
23632;SDS011;11993;48.748;9.166;2023-06-24T10:13:59;3.30;;;2.55;;
23632;SDS011;11993;48.748;9.166;2023-06-24T10:16:25;4.05;;;2.92;;
23632;SDS011;11993;48.748;9.166;2023-06-24T10:18:50;2.90;;;2.33;;
23632;SDS011;11993;48.748;9.166;2023-06-24T10:21:16;2.60;;;2.40;;
23632;SDS011;11993;48.748;9.166;2023-06-24T10:26:24;3.08;;;2.25;;
23632;SDS011;11993;48.748;9.166;2023-06-24T10:34:28;4.65;;;2.42;;
23632;SDS011;11993;48.748;9.166;2023-06-24T10:37:20;3.25;;;2.40;;
23632;SDS011;11993;48.748;9.166;2023-06-24T10:47:36;4.88;;;2.53;;
23632;SDS011;11993;48.748;9.166;2023-06-24T10:50:03;3.08;;;2.50;;
23632;SDS011;11993;48.748;9.166;2023-06-24T10:52:30;3.13;;;2.30;;
23632;SDS011;11993;48.748;9.166;2023-06-24T10:54:56;3.15;;;2.40;;
23632;SDS011;11993;48.748;9.166;2023-06-24T10:57:23;4.95;;;2.70;;
23632;SDS011;11993;48.748;9.166;2023-06-24T10:59:53;3.00;;;2.58;;
23632;SDS011;11993;48.748;9.166;2023-06-24T11:02:20;5.38;;;2.83;;
23632;SDS011;11993;48.748;9.166;2023-06-24T11:04:48;2.35;;;2.15;;
23632;SDS011;11993;48.748;9.166;2023-06-24T11:07:15;4.28;;;2.90;;
23632;SDS011;11993;48.748;9.166;2023-06-24T11:09:48;4.20;;;2.70;;
23632;SDS011;11993;48.748;9.166;2023-06-24T11:12:15;3.88;;;2.40;;
23632;SDS011;11993;48.748;9.166;2023-06-24T11:14:41;3.28;;;2.50;;
23632;SDS011;11993;48.748;9.166;2023-06-24T11:17:10;3.65;;;2.70;;
23632;SDS011;11993;48.748;9.166;2023-06-24T11:19:36;5.82;;;4.75;;
23632;SDS011;11993;48.748;9.166;2023-06-24T11:22:04;4.07;;;3.50;;
23632;SDS011;11993;48.748;9.166;2023-06-24T11:24:31;3.55;;;2.60;;
23632;SDS011;11993;48.748;9.166;2023-06-24T11:26:57;3.78;;;3.10;;
23632;SDS011;11993;48.748;9.166;2023-06-24T11:29:23;5.30;;;2.80;;
23632;SDS011;11993;48.748;9.166;2023-06-24T11:31:49;3.30;;;2.65;;
23632;SDS011;11993;48.748;9.166;2023-06-24T11:34:15;5.40;;;2.30;;
23632;SDS011;11993;48.748;9.166;2023-06-24T11:36:41;2.97;;;2.15;;
23632;SDS011;11993;48.748;9.166;2023-06-24T11:39:07;2.85;;;2.53;;
23632;SDS011;11993;48.748;9.166;2023-06-24T11:41:33;4.32;;;2.72;;
23632;SDS011;11993;48.748;9.166;2023-06-24T11:43:58;3.03;;;2.70;;
23632;SDS011;11993;48.748;9.166;2023-06-24T11:48:50;3.45;;;2.60;;
23632;SDS011;11993;48.748;9.166;2023-06-24T11:51:16;3.85;;;2.63;;
23632;SDS011;11993;48.748;9.166;2023-06-24T11:53:42;3.10;;;2.47;;
23632;SDS011;11993;48.748;9.166;2023-06-24T11:56:09;4.03;;;2.50;;
23632;SDS011;11993;48.748;9.166;2023-06-24T11:58:35;4.05;;;3.00;;
23632;SDS011;11993;48.748;9.166;2023-06-24T12:01:00;3.78;;;2.58;;
23632;SDS011;11993;48.748;9.166;2023-06-24T12:03:27;2.92;;;2.50;;
23632;SDS011;11993;48.748;9.166;2023-06-24T12:05:59;3.60;;;2.63;;
23632;SDS011;11993;48.748;9.166;2023-06-24T12:08:25;3.22;;;2.40;;
23632;SDS011;11993;48.748;9.166;2023-06-24T12:10:51;4.18;;;2.67;;
23632;SDS011;11993;48.748;9.166;2023-06-24T12:13:17;3.33;;;2.28;;
23632;SDS011;11993;48.748;9.166;2023-06-24T12:15:42;4.18;;;2.30;;
23632;SDS011;11993;48.748;9.166;2023-06-24T12:18:08;2.80;;;2.30;;
23632;SDS011;11993;48.748;9.166;2023-06-24T12:20:34;3.08;;;2.50;;
23632;SDS011;11993;48.748;9.166;2023-06-24T12:23:01;3.08;;;2.20;;
23632;SDS011;11993;48.748;9.166;2023-06-24T12:25:28;3.90;;;2.55;;
23632;SDS011;11993;48.748;9.166;2023-06-24T12:27:54;2.95;;;2.60;;
23632;SDS011;11993;48.748;9.166;2023-06-24T12:30:20;3.03;;;2.72;;
23632;SDS011;11993;48.748;9.166;2023-06-24T12:32:46;4.57;;;2.70;;
23632;SDS011;11993;48.748;9.166;2023-06-24T12:35:14;2.90;;;2.38;;
23632;SDS011;11993;48.748;9.166;2023-06-24T12:37:40;4.15;;;2.60;;
23632;SDS011;11993;48.748;9.166;2023-06-24T12:40:06;2.47;;;2.15;;
23632;SDS011;11993;48.748;9.166;2023-06-24T12:42:32;2.78;;;2.30;;
23632;SDS011;11993;48.748;9.166;2023-06-24T12:44:58;2.97;;;2.40;;
23632;SDS011;11993;48.748;9.166;2023-06-24T12:47:24;4.15;;;2.50;;
23632;SDS011;11993;48.748;9.166;2023-06-24T12:49:49;3.17;;;2.42;;
23632;SDS011;11993;48.748;9.166;2023-06-24T12:52:15;4.28;;;2.42;;
23632;SDS011;11993;48.748;9.166;2023-06-24T12:54:41;2.88;;;2.50;;
23632;SDS011;11993;48.748;9.166;2023-06-24T12:57:07;3.42;;;2.45;;
23632;SDS011;11993;48.748;9.166;2023-06-24T12:59:32;3.65;;;2.80;;
23632;SDS011;11993;48.748;9.166;2023-06-24T13:01:58;2.97;;;2.50;;
23632;SDS011;11993;48.748;9.166;2023-06-24T13:04:23;3.38;;;2.30;;
23632;SDS011;11993;48.748;9.166;2023-06-24T13:06:50;3.03;;;2.50;;
23632;SDS011;11993;48.748;9.166;2023-06-24T13:09:16;4.43;;;2.40;;
23632;SDS011;11993;48.748;9.166;2023-06-24T13:11:42;6.25;;;2.60;;
23632;SDS011;11993;48.748;9.166;2023-06-24T13:14:07;3.35;;;3.00;;
23632;SDS011;11993;48.748;9.166;2023-06-24T13:16:34;3.40;;;2.78;;
23632;SDS011;11993;48.748;9.166;2023-06-24T13:19:01;3.25;;;2.78;;
23632;SDS011;11993;48.748;9.166;2023-06-24T13:21:26;3.35;;;2.45;;
23632;SDS011;11993;48.748;9.166;2023-06-24T13:23:52;3.20;;;2.63;;
23632;SDS011;11993;48.748;9.166;2023-06-24T13:26:17;3.80;;;2.70;;
23632;SDS011;11993;48.748;9.166;2023-06-24T13:28:43;3.58;;;2.40;;
23632;SDS011;11993;48.748;9.166;2023-06-24T13:31:09;3.45;;;2.42;;
23632;SDS011;11993;48.748;9.166;2023-06-24T13:33:34;2.67;;;2.45;;
23632;SDS011;11993;48.748;9.166;2023-06-24T13:36:00;4.95;;;2.67;;
23632;SDS011;11993;48.748;9.166;2023-06-24T13:38:27;3.17;;;2.85;;
23632;SDS011;11993;48.748;9.166;2023-06-24T13:40:53;2.58;;;2.22;;
23632;SDS011;11993;48.748;9.166;2023-06-24T13:43:19;4.10;;;2.30;;
23632;SDS011;11993;48.748;9.166;2023-06-24T13:45:44;3.22;;;2.42;;
23632;SDS011;11993;48.748;9.166;2023-06-24T13:48:10;3.67;;;2.50;;
23632;SDS011;11993;48.748;9.166;2023-06-24T13:50:35;5.53;;;2.50;;
23632;SDS011;11993;48.748;9.166;2023-06-24T13:53:01;3.60;;;2.67;;
23632;SDS011;11993;48.748;9.166;2023-06-24T13:55:27;3.10;;;2.50;;
23632;SDS011;11993;48.748;9.166;2023-06-24T13:57:52;6.20;;;2.70;;
23632;SDS011;11993;48.748;9.166;2023-06-24T14:00:18;4.07;;;3.25;;
23632;SDS011;11993;48.748;9.166;2023-06-24T14:02:45;4.53;;;2.40;;
23632;SDS011;11993;48.748;9.166;2023-06-24T14:05:10;4.07;;;2.67;;
23632;SDS011;11993;48.748;9.166;2023-06-24T14:07:36;3.08;;;2.70;;
23632;SDS011;11993;48.748;9.166;2023-06-24T14:10:02;3.78;;;2.42;;
23632;SDS011;11993;48.748;9.166;2023-06-24T14:12:27;3.28;;;2.60;;
23632;SDS011;11993;48.748;9.166;2023-06-24T14:14:53;2.53;;;2.28;;
23632;SDS011;11993;48.748;9.166;2023-06-24T14:17:19;3.58;;;2.95;;
23632;SDS011;11993;48.748;9.166;2023-06-24T14:19:44;3.85;;;2.60;;
23632;SDS011;11993;48.748;9.166;2023-06-24T14:22:11;5.35;;;2.75;;
23632;SDS011;11993;48.748;9.166;2023-06-24T14:24:37;3.70;;;2.70;;
23632;SDS011;11993;48.748;9.166;2023-06-24T14:27:03;2.97;;;2.35;;
23632;SDS011;11993;48.748;9.166;2023-06-24T14:29:32;3.45;;;2.50;;
23632;SDS011;11993;48.748;9.166;2023-06-24T14:31:57;3.65;;;2.58;;
23632;SDS011;11993;48.748;9.166;2023-06-24T14:34:23;3.70;;;3.05;;
23632;SDS011;11993;48.748;9.166;2023-06-24T14:36:48;3.75;;;3.28;;
23632;SDS011;11993;48.748;9.166;2023-06-24T14:39:14;3.40;;;2.88;;
23632;SDS011;11993;48.748;9.166;2023-06-24T14:41:43;4.30;;;2.53;;
23632;SDS011;11993;48.748;9.166;2023-06-24T14:44:09;3.10;;;2.80;;
23632;SDS011;11993;48.748;9.166;2023-06-24T14:46:35;4.10;;;2.78;;
23632;SDS011;11993;48.748;9.166;2023-06-24T14:49:01;3.38;;;2.72;;
23632;SDS011;11993;48.748;9.166;2023-06-24T14:51:27;3.95;;;2.85;;
23632;SDS011;11993;48.748;9.166;2023-06-24T14:53:52;3.00;;;2.70;;
23632;SDS011;11993;48.748;9.166;2023-06-24T14:56:18;5.32;;;2.80;;
23632;SDS011;11993;48.748;9.166;2023-06-24T14:58:43;2.78;;;2.47;;
23632;SDS011;11993;48.748;9.166;2023-06-24T15:01:09;3.60;;;2.47;;
23632;SDS011;11993;48.748;9.166;2023-06-24T15:03:35;4.72;;;2.60;;
23632;SDS011;11993;48.748;9.166;2023-06-24T15:06:00;4.65;;;2.55;;
23632;SDS011;11993;48.748;9.166;2023-06-24T15:08:26;3.22;;;2.70;;
23632;SDS011;11993;48.748;9.166;2023-06-24T15:10:51;3.45;;;2.35;;